This is the latest recevied weather packets stored in our database for station/object KD9YTS-13. If no packets are shown the sender has not sent any weather packets the latest 10 day(s).
| Time | Temp. | Humidity | Pressure | Rain* | Wind** | Luminosity | Snow |
|---|---|---|---|---|---|---|---|
| 1777470983 | 4.44° C | 9% | - | 0.76 mm | - | - | - |
| 1777469782 | -17.78° C | 100% | - | 0.76 mm | - | - | - |
| 1777468582 | -17.78° C | 100% | - | 1.02 mm | - | - | - |
| 1777467382 | -17.78° C | 100% | - | 0.51 mm | - | - | - |
| 1777466182 | 4.44° C | 9% | - | 0.51 mm | - | - | - |
| 1777463782 | -17.78° C | 100% | - | 0.51 mm | - | - | - |
| 1777462582 | -17.78° C | 100% | - | 0.25 mm | - | - | - |
| 1777461382 | -17.78° C | 100% | - | 0.76 mm | - | - | - |
| 1777460183 | 4.44° C | 9% | - | 0.51 mm | - | - | - |
| 1777458982 | -17.78° C | 100% | - | 0.76 mm | - | - | - |
| 1777457782 | -17.78° C | 100% | - | 0.51 mm | - | - | - |
| 1777456583 | -17.78° C | 100% | - | 0.51 mm | - | - | - |
| 1777455383 | -17.78° C | 100% | - | 0 mm | - | - | - |
| 1777454187 | 6.11° C | 8% | - | 0 mm | - | - | - |
| 1777452982 | -17.78° C | 100% | - | 0 mm | - | - | - |
| 1777451782 | -17.78° C | 100% | - | 0 mm | - | - | - |
| 1777450582 | -17.78° C | 100% | - | 0 mm | - | - | - |
| 1777449383 | -17.78° C | 100% | - | 0 mm | - | - | - |
| 1777448182 | 7.78° C | 6% | - | 0 mm | - | - | - |
| 1777446982 | -17.78° C | 100% | - | 0 mm | - | - | - |
| 1777445782 | -17.78° C | 100% | - | 0 mm | - | - | - |
| 1777444582 | -17.78° C | 100% | - | 0 mm | - | - | - |
| 1777443382 | 8.89° C | 6% | - | 0 mm | - | - | - |
| 1777442182 | 8.89° C | 6% | - | 0 mm | - | - | - |
| 1777440982 | -17.78° C | 100% | - | 0 mm | - | - | - |
* Rain latest hour (hover to see other rain measurements)
** Current wind speed in m/s (hover to see current wind gust speed)